Pagrindinis puslapis
METAR-TAF:

METAR-TAF

Oro uostai :

Longjyrbienas, Norvegija

platuma: 78-15N, ilguma: 015-28E, Aukštis: 2 m

Dabartinis oras

Ataskaita buvo paskelbta 37 minutes, ne 22:50 UTC
Vėjas 10 kt iš Šiaurės
Temperatūra 2°C
Drėgmė 64%
Slėgis 1007 hPa
Matomumas 10 km arba daugiau
Su prošvaistėmis ne aukštis 3700 ft

METAR: ENSB 202250Z 35010KT 9999 BKN037 02/M04 Q1007 RMK WIND 1400FT 35007KT

Laikas: 01:27 (23:27 UTC)

Prognozė

Prognozė galioja nuo 20 metu 18 UTC su 21 metu 18 UTC
Vėjas 9 kt iš Šiaurės Vakarų
Matomumas 10 km arba daugiau
Mažai debesys ne aukštis 2000 ft
Su prošvaistėmis ne aukštis 4000 ft
Laikinai
nuo 20 metu 21 UTC su 21 metu 18 UTC
Vėjas 19 kt iš Šiaurės Vakarų

TAF: ENSB 2018/2118 32009KT 9999 FEW020 BKN040 TEMPO 2021/2118 32019KT

Orai ataskaitas ir orų prognozės (METAR, TAF).

turimą stotys yra geltonos ir raudonos taškus žemėlapyje.

Perkelti pele per norėdami pamatyti stoties vardą.

Tada spustelėkite, norėdami matyti oro stebėjimo ir prognozės.

Norėdami pakeisti žemėlapį: spustelėkite ant žalios mygtukų su juodo kryžiaus žemyn,; žalią mygtuką su brūkšneliu, jei norite nutolinti; arba žalių rodyklių gretimoms žemėlapius.


METAR-TAF: